createdAt,value
2018-01-15T00:00:57.209Z,77.30
2018-01-15T00:03:26.102Z,77.30
2018-01-15T00:05:54.239Z,77.20
2018-01-15T00:08:22.409Z,77.20
2018-01-15T00:10:50.519Z,77.30
2018-01-15T00:13:18.649Z,77.30
2018-01-15T00:15:46.806Z,77.20
2018-01-15T00:18:14.963Z,77.20
2018-01-15T00:20:43.085Z,77.30
2018-01-15T00:23:11.988Z,77.30
2018-01-15T00:25:40.868Z,77.20
2018-01-15T00:28:09.781Z,77.20
2018-01-15T00:30:37.909Z,77.20
2018-01-15T00:33:06.029Z,77.10
2018-01-15T00:35:34.163Z,77.10
2018-01-15T00:38:02.286Z,77.10
2018-01-15T00:40:30.425Z,77.10
2018-01-15T00:42:59.318Z,77.10
2018-01-15T00:45:27.471Z,77.00
2018-01-15T00:47:56.357Z,77.10
2018-01-15T00:50:25.249Z,77.40
2018-01-15T00:52:54.151Z,77.10
2018-01-15T00:55:23.034Z,77.00
2018-01-15T00:57:51.949Z,77.00
2018-01-15T01:00:20.076Z,77.00
2018-01-15T01:02:48.210Z,77.10
2018-01-15T01:05:16.345Z,77.10
2018-01-15T01:07:45.239Z,76.90
2018-01-15T01:10:14.151Z,76.90
2018-01-15T01:12:42.272Z,76.80
2018-01-15T01:15:10.406Z,76.80
2018-01-15T01:17:38.577Z,76.70
2018-01-15T01:20:06.697Z,76.80
2018-01-15T01:22:34.829Z,76.70
2018-01-15T01:25:02.960Z,77.50
2018-01-15T01:27:31.874Z,76.70
2018-01-15T01:29:59.989Z,76.80
2018-01-15T01:32:28.135Z,77.30
2018-01-15T01:34:56.258Z,76.60
2018-01-15T01:37:25.181Z,76.30
2018-01-15T01:39:53.306Z,76.40
2018-01-15T01:42:21.448Z,76.30
2018-01-15T01:44:49.575Z,76.20
2018-01-15T01:47:18.461Z,76.10
2018-01-15T01:49:47.360Z,76.10
2018-01-15T01:52:15.487Z,76.10
2018-01-15T01:54:43.642Z,76.00
2018-01-15T01:57:11.775Z,76.00
2018-01-15T01:59:40.667Z,76.00
2018-01-15T02:02:09.579Z,76.00
2018-01-15T02:04:37.680Z,75.90
2018-01-15T02:07:06.611Z,76.00
2018-01-15T02:09:35.491Z,76.00
2018-01-15T02:12:04.394Z,76.00
2018-01-15T02:14:33.307Z,75.90
2018-01-15T02:17:01.418Z,76.00
2018-01-15T02:19:29.553Z,75.90
2018-01-15T02:21:57.678Z,76.00
2018-01-15T02:24:25.820Z,76.00
2018-01-15T02:26:53.936Z,76.10
2018-01-15T02:29:22.826Z,76.20
2018-01-15T02:31:51.742Z,76.30
2018-01-15T02:34:19.858Z,76.20
2018-01-15T02:36:48.018Z,76.20
2018-01-15T02:39:16.144Z,76.20
2018-01-15T02:41:45.033Z,76.20
2018-01-15T02:44:14.018Z,76.20
2018-01-15T02:46:42.897Z,76.20
2018-01-15T02:49:11.886Z,76.40
2018-01-15T02:51:40.779Z,77.20
2018-01-15T02:54:08.930Z,76.40
2018-01-15T02:56:37.068Z,76.40
2018-01-15T02:59:05.173Z,76.40
2018-01-15T03:01:33.311Z,76.30
2018-01-15T03:04:01.442Z,76.40
2018-01-15T03:06:30.343Z,76.50
2018-01-15T03:08:59.242Z,76.50
2018-01-15T03:11:27.436Z,76.60
2018-01-15T03:13:56.300Z,76.80
2018-01-15T03:16:25.214Z,76.80
2018-01-15T03:18:54.090Z,77.00
2018-01-15T03:21:22.213Z,77.00
2018-01-15T03:23:50.354Z,76.90
2018-01-15T03:26:18.481Z,76.80
2018-01-15T03:28:47.389Z,76.80
2018-01-15T03:31:15.842Z,76.80
2018-01-15T03:33:44.747Z,76.80
2018-01-15T03:36:13.652Z,76.90
2018-01-15T03:38:41.788Z,76.70
2018-01-15T03:41:09.913Z,76.80
2018-01-15T03:43:38.047Z,76.80
2018-01-15T03:46:06.962Z,76.80
2018-01-15T03:48:35.083Z,76.80
2018-01-15T03:51:03.223Z,76.80
2018-01-15T03:53:31.346Z,76.80
2018-01-15T03:55:59.472Z,76.80
2018-01-15T03:58:27.604Z,76.70
2018-01-15T04:00:56.497Z,76.70
2018-01-15T04:03:25.418Z,76.60
2018-01-15T04:05:53.538Z,76.60
2018-01-15T04:08:21.660Z,76.60
2018-01-15T04:10:49.802Z,76.60
2018-01-15T04:13:18.688Z,76.50
2018-01-15T04:15:47.604Z,76.50
2018-01-15T04:18:15.736Z,76.40
2018-01-15T04:20:43.865Z,76.40
2018-01-15T04:23:12.012Z,77.20
2018-01-15T04:25:40.138Z,76.40
2018-01-15T04:28:08.282Z,76.40
2018-01-15T04:30:36.416Z,76.20
2018-01-15T04:33:05.335Z,76.40
2018-01-15T04:35:33.454Z,76.40
2018-01-15T04:38:01.614Z,76.40
2018-01-15T04:40:29.754Z,76.30
2018-01-15T04:42:57.884Z,76.30
2018-01-15T04:45:26.797Z,77.00
2018-01-15T04:47:54.926Z,76.40
2018-01-15T04:50:23.048Z,76.40
2018-01-15T04:52:51.184Z,76.30
2018-01-15T04:55:19.317Z,76.40
2018-01-15T04:57:47.484Z,76.50
2018-01-15T05:00:15.624Z,76.50
2018-01-15T05:02:44.619Z,76.70
2018-01-15T05:05:13.511Z,76.70
2018-01-15T05:07:41.677Z,76.80
2018-01-15T05:10:10.588Z,77.00
2018-01-15T05:12:38.739Z,77.00
2018-01-15T05:15:08.365Z,77.10
2018-01-15T05:17:36.548Z,77.00
2018-01-15T05:20:05.430Z,77.10
2018-01-15T05:22:33.547Z,77.10
2018-01-15T05:25:01.675Z,77.30
2018-01-15T05:27:29.808Z,77.40
2018-01-15T05:29:58.697Z,77.60
2018-01-15T05:32:27.601Z,77.70
2018-01-15T05:34:56.491Z,77.90
2018-01-15T05:37:24.671Z,77.80
2018-01-15T05:39:52.802Z,78.10
2018-01-15T05:42:20.932Z,78.20
2018-01-15T05:44:49.071Z,78.30
2018-01-15T05:47:17.995Z,78.40
2018-01-15T05:49:46.138Z,78.40
2018-01-15T05:52:15.173Z,78.40
2018-01-15T05:54:43.330Z,78.40
2018-01-15T05:57:11.456Z,78.40
2018-01-15T05:59:39.697Z,78.40
2018-01-15T06:02:07.955Z,78.40
2018-01-15T06:04:36.914Z,78.40
2018-01-15T06:07:05.814Z,78.50
2018-01-15T06:09:34.736Z,78.50
2018-01-15T06:12:02.877Z,78.50
2018-01-15T06:14:31.764Z,78.50
2018-01-15T06:17:00.677Z,78.40
2018-01-15T06:19:29.571Z,78.40
2018-01-15T06:21:57.699Z,78.40
2018-01-15T06:24:25.866Z,78.40
2018-01-15T06:26:54.098Z,78.30
2018-01-15T06:29:22.202Z,78.30
2018-01-15T06:31:50.345Z,78.30
2018-01-15T06:34:18.530Z,78.30
2018-01-15T06:36:46.672Z,78.30
2018-01-15T06:39:14.821Z,78.30
2018-01-15T06:41:43.714Z,78.40
2018-01-15T06:44:12.615Z,78.30
2018-01-15T06:46:40.739Z,78.40
2018-01-15T06:49:08.870Z,78.30
2018-01-15T06:51:37.060Z,78.40
2018-01-15T06:54:05.946Z,78.50
2018-01-15T06:56:34.082Z,78.50
2018-01-15T06:59:02.962Z,78.70
2018-01-15T07:01:31.107Z,78.40
2018-01-15T07:03:59.240Z,78.40
2018-01-15T07:06:27.368Z,78.30
2018-01-15T07:08:55.497Z,78.40
2018-01-15T07:11:23.638Z,78.40
2018-01-15T07:13:52.637Z,78.40
2018-01-15T07:16:21.523Z,78.30
2018-01-15T07:18:50.506Z,78.30
2018-01-15T07:21:19.416Z,78.30
2018-01-15T07:23:47.551Z,78.30
2018-01-15T07:26:15.683Z,78.20
2018-01-15T07:28:43.826Z,78.10
2018-01-15T07:31:12.705Z,78.20
2018-01-15T07:33:41.600Z,78.10
2018-01-15T07:36:10.496Z,78.00
2018-01-15T07:38:38.641Z,78.00
2018-01-15T07:41:06.813Z,78.50
2018-01-15T07:43:34.922Z,77.80
2018-01-15T07:46:03.080Z,77.70
2018-01-15T07:48:31.976Z,77.50
2018-01-15T07:51:00.105Z,77.50
2018-01-15T07:53:28.246Z,77.40
2018-01-15T07:55:56.388Z,77.30
2018-01-15T07:58:25.287Z,77.10
2018-01-15T08:00:53.442Z,77.10
2018-01-15T08:03:22.334Z,77.20
2018-01-15T08:05:51.228Z,77.20
2018-01-15T08:08:20.118Z,77.20
2018-01-15T08:10:49.023Z,77.20
2018-01-15T08:13:17.145Z,77.20
2018-01-15T08:15:46.770Z,77.30
2018-01-15T08:18:14.896Z,77.20
2018-01-15T08:20:43.019Z,77.50
2018-01-15T08:23:11.918Z,77.10
2018-01-15T08:25:40.802Z,77.00
2018-01-15T08:28:09.707Z,77.10
2018-01-15T08:30:37.827Z,77.10
2018-01-15T08:33:05.953Z,77.00
2018-01-15T08:35:34.067Z,76.80
2018-01-15T08:38:02.197Z,76.60
2018-01-15T08:40:30.339Z,76.40
2018-01-15T08:42:58.489Z,76.30
2018-01-15T08:45:26.645Z,76.10
2018-01-15T08:47:54.777Z,76.10
2018-01-15T08:50:23.740Z,75.80
2018-01-15T08:52:51.870Z,75.80
2018-01-15T08:55:19.993Z,75.60
2018-01-15T08:57:48.146Z,75.30
2018-01-15T09:00:16.279Z,75.10
2018-01-15T09:02:44.401Z,74.90
2018-01-15T09:05:12.540Z,74.80
2018-01-15T09:07:40.648Z,74.70
2018-01-15T09:10:08.794Z,74.40
2018-01-15T09:12:36.922Z,74.20
2018-01-15T09:15:05.809Z,74.00
2018-01-15T09:17:34.706Z,73.80
2018-01-15T09:20:03.585Z,73.70
2018-01-15T09:22:32.478Z,73.70
2018-01-15T09:25:01.374Z,73.50
2018-01-15T09:27:30.263Z,73.10
2018-01-15T09:29:59.143Z,72.90
2018-01-15T09:32:28.198Z,72.80
2018-01-15T09:34:56.309Z,72.80
2018-01-15T09:37:25.204Z,72.30
2018-01-15T09:39:54.298Z,72.10
2018-01-15T09:42:23.586Z,72.00
2018-01-15T09:44:51.888Z,71.90
2018-01-15T09:47:20.775Z,71.20
2018-01-15T09:49:48.908Z,71.20
2018-01-15T09:52:18.643Z,71.30
2018-01-15T09:54:47.542Z,70.90
2018-01-15T09:57:15.678Z,70.80
2018-01-15T09:59:44.194Z,70.90
2018-01-15T10:02:12.316Z,71.00
2018-01-15T10:04:40.446Z,71.20
2018-01-15T10:07:08.599Z,71.20
2018-01-15T10:09:37.536Z,71.10
2018-01-15T10:12:05.692Z,70.90
2018-01-15T10:14:34.141Z,70.40
2018-01-15T10:17:03.042Z,70.00
2018-01-15T10:19:31.925Z,70.00
2018-01-15T10:22:00.855Z,69.60
2018-01-15T10:24:28.975Z,69.50
2018-01-15T10:29:20.258Z,68.90
2018-01-15T10:31:48.387Z,68.60
2018-01-15T10:34:17.288Z,68.30
2018-01-15T10:36:46.238Z,68.00
2018-01-15T10:39:14.362Z,68.00
2018-01-15T10:41:42.495Z,67.80
2018-01-15T10:44:10.623Z,67.60
2018-01-15T10:46:38.764Z,67.00
2018-01-15T10:49:07.755Z,67.00
2018-01-15T10:51:36.635Z,66.60
2018-01-15T10:54:05.534Z,65.80
2018-01-15T10:56:33.649Z,65.80
2018-01-15T10:59:01.805Z,64.70
2018-01-15T11:01:29.918Z,64.30
2018-01-15T11:03:58.032Z,63.20
2018-01-15T11:06:26.145Z,63.50
2018-01-15T11:08:54.352Z,62.70
2018-01-15T11:11:23.309Z,61.20
2018-01-15T11:13:51.420Z,61.20
2018-01-15T11:16:20.358Z,59.50
2018-01-15T11:18:48.450Z,59.50
2018-01-15T11:21:16.587Z,58.60
2018-01-15T11:23:44.726Z,58.50
2018-01-15T11:26:13.600Z,55.90
2018-01-15T11:28:41.730Z,55.50
2018-01-15T11:31:10.177Z,53.70
2018-01-15T11:33:38.392Z,49.90
2018-01-15T11:36:06.516Z,47.30
2018-01-15T11:38:35.398Z,41.50
2018-01-15T11:41:04.297Z,38.20
2018-01-15T11:43:33.174Z,36.20
2018-01-15T11:46:02.117Z,34.90
2018-01-15T11:48:30.218Z,34.30
2018-01-15T11:50:58.345Z,32.90
2018-01-15T11:53:26.507Z,32.10
2018-01-15T11:55:55.390Z,30.00
2018-01-15T11:58:23.520Z,30.00
2018-01-15T12:00:51.664Z,29.30
2018-01-15T12:03:19.794Z,29.00
2018-01-15T12:05:48.757Z,27.80
2018-01-15T12:08:16.869Z,27.70
2018-01-15T12:10:45.024Z,27.00
2018-01-15T12:13:13.924Z,26.50
2018-01-15T12:15:42.911Z,26.10
2018-01-15T12:18:11.823Z,25.30
2018-01-15T12:20:39.953Z,25.70
2018-01-15T12:23:08.109Z,24.80
2018-01-15T12:25:36.230Z,25.00
2018-01-15T12:28:04.348Z,24.30
2018-01-15T12:30:32.488Z,23.90
2018-01-15T12:33:00.604Z,24.00
2018-01-15T12:35:28.741Z,23.50
2018-01-15T12:37:56.871Z,23.20
2018-01-15T12:40:25.040Z,23.20
2018-01-15T12:42:53.936Z,22.70
2018-01-15T12:45:22.894Z,22.60
2018-01-15T12:47:51.039Z,22.50
2018-01-15T12:50:19.173Z,22.10
2018-01-15T12:52:48.066Z,22.00
2018-01-15T12:55:16.949Z,21.30
2018-01-15T12:57:45.852Z,21.50
2018-01-15T13:00:14.752Z,22.10
2018-01-15T13:02:42.885Z,22.00
2018-01-15T13:05:11.021Z,23.40
2018-01-15T13:10:34.799Z,26.40
2018-01-15T13:13:02.949Z,29.30
2018-01-15T13:15:31.929Z,27.20
2018-01-15T13:18:00.823Z,28.10
2018-01-15T13:20:29.716Z,29.80
2018-01-15T13:22:58.633Z,29.80
2018-01-15T13:25:26.775Z,29.80
2018-01-15T13:27:55.678Z,28.10
2018-01-15T13:30:23.811Z,28.10
2018-01-15T13:32:51.950Z,27.70
2018-01-15T13:35:20.071Z,27.30
2018-01-15T13:37:49.082Z,27.10
2018-01-15T13:40:17.378Z,26.90
2018-01-15T13:42:45.514Z,27.90
2018-01-15T13:45:14.404Z,28.90
2018-01-15T13:47:42.527Z,29.40
2018-01-15T13:50:12.206Z,30.30
2018-01-15T13:52:42.405Z,31.20
2018-01-15T13:55:10.590Z,31.90
2018-01-15T13:57:39.511Z,32.00
2018-01-15T14:00:08.409Z,32.20
2018-01-15T14:02:36.536Z,32.20
2018-01-15T14:05:05.531Z,35.60
2018-01-15T14:07:34.446Z,39.40
2018-01-15T14:10:04.864Z,39.40
2018-01-15T14:12:33.760Z,38.20
2018-01-15T14:15:01.884Z,38.10
2018-01-15T14:17:29.994Z,41.10
2018-01-15T14:19:58.127Z,39.60
2018-01-15T14:22:26.240Z,41.60
2018-01-15T14:24:54.373Z,41.60
2018-01-15T14:27:22.485Z,43.30
2018-01-15T14:29:51.399Z,45.00
2018-01-15T14:32:19.524Z,45.00
2018-01-15T14:34:47.630Z,45.60
2018-01-15T14:37:15.784Z,46.50
2018-01-15T14:39:44.033Z,46.80
2018-01-15T14:42:12.023Z,45.00
2018-01-15T14:44:41.172Z,46.20
2018-01-15T14:47:09.395Z,46.20
2018-01-15T14:49:38.282Z,48.10
2018-01-15T14:52:07.159Z,48.80
2018-01-15T14:54:36.061Z,50.30
2018-01-15T14:57:04.935Z,50.30
2018-01-15T14:59:33.076Z,50.20
2018-01-15T15:02:01.204Z,51.10
2018-01-15T15:04:29.431Z,51.10
2018-01-15T15:06:57.523Z,51.30
2018-01-15T15:09:25.632Z,52.40
2018-01-15T15:11:53.803Z,51.30
2018-01-15T15:14:22.667Z,52.60
2018-01-15T15:16:51.565Z,52.70
2018-01-15T15:19:20.460Z,52.90
2018-01-15T15:21:49.354Z,54.00
2018-01-15T15:24:18.246Z,54.10
2018-01-15T15:26:47.177Z,54.30
2018-01-15T15:29:15.308Z,54.30
2018-01-15T15:31:44.190Z,54.70
2018-01-15T15:34:13.086Z,55.50
2018-01-15T15:36:41.235Z,55.50
2018-01-15T15:39:09.386Z,55.40
2018-01-15T15:41:37.507Z,55.70
2018-01-15T15:44:05.615Z,55.90
2018-01-15T15:46:33.748Z,56.20
2018-01-15T15:49:01.885Z,56.40
2018-01-15T15:51:30.016Z,56.50
2018-01-15T15:53:58.137Z,57.00
2018-01-15T15:56:27.033Z,58.30
2018-01-15T15:58:55.983Z,58.50
2018-01-15T16:01:24.111Z,58.00
2018-01-15T16:03:52.997Z,58.10
2018-01-15T16:06:21.903Z,58.20
2018-01-15T16:08:50.050Z,58.20
2018-01-15T16:11:18.935Z,59.10
2018-01-15T16:13:47.892Z,58.80
2018-01-15T16:16:15.999Z,58.80
2018-01-15T16:18:44.121Z,59.00
2018-01-15T16:21:12.325Z,59.90
2018-01-15T16:23:40.463Z,59.40
2018-01-15T16:26:08.576Z,59.70
2018-01-15T16:28:38.209Z,60.10
2018-01-15T16:31:07.118Z,60.10
2018-01-15T16:33:35.230Z,60.10
2018-01-15T16:36:03.369Z,60.10
2018-01-15T16:38:31.489Z,59.90
2018-01-15T16:41:01.154Z,59.80
2018-01-15T16:43:29.289Z,59.80
2018-01-15T16:45:58.190Z,59.80
2018-01-15T16:48:27.119Z,59.70
2018-01-15T16:50:55.976Z,59.40
2018-01-15T16:53:24.126Z,59.40
2018-01-15T16:55:53.010Z,59.60
2018-01-15T16:58:21.237Z,59.50
2018-01-15T17:00:49.286Z,59.40
2018-01-15T17:03:17.467Z,59.50
2018-01-15T17:05:46.344Z,59.60
2018-01-15T17:08:14.481Z,59.60
2018-01-15T17:10:42.613Z,59.40
2018-01-15T17:13:10.735Z,58.80
2018-01-15T17:15:38.857Z,59.40
2018-01-15T17:18:06.977Z,59.50
2018-01-15T17:20:35.136Z,59.50
2018-01-15T17:23:03.269Z,59.10
2018-01-15T17:25:31.404Z,58.60
2018-01-15T17:28:00.429Z,59.60
2018-01-15T17:30:29.295Z,59.20
2018-01-15T17:32:58.189Z,59.30
2018-01-15T17:35:27.105Z,59.40
2018-01-15T17:37:55.204Z,59.40
2018-01-15T17:40:23.353Z,59.30
2018-01-15T17:42:51.474Z,59.20
2018-01-15T17:45:19.598Z,59.30
2018-01-15T17:47:47.751Z,59.20
2018-01-15T17:50:15.872Z,59.30
2018-01-15T17:52:44.009Z,59.20
2018-01-15T17:55:12.161Z,58.80
2018-01-15T17:57:40.324Z,58.80
2018-01-15T18:00:09.203Z,59.10
2018-01-15T18:02:38.087Z,58.80
2018-01-15T18:05:07.010Z,59.20
2018-01-15T18:07:35.133Z,58.50
2018-01-15T18:10:03.286Z,58.50
2018-01-15T18:12:31.414Z,58.20
2018-01-15T18:14:59.555Z,58.20
2018-01-15T18:17:27.674Z,58.50
2018-01-15T18:19:55.816Z,58.00
2018-01-15T18:22:23.924Z,58.20
2018-01-15T18:24:52.046Z,58.30
2018-01-15T18:27:20.245Z,58.40
2018-01-15T18:29:49.151Z,58.00
2018-01-15T18:32:17.313Z,58.00
2018-01-15T18:34:46.464Z,59.00
2018-01-15T18:37:14.584Z,59.00
2018-01-15T18:39:43.475Z,59.00
2018-01-15T18:42:11.616Z,59.00
2018-01-15T18:44:39.791Z,59.30
2018-01-15T18:47:07.916Z,58.90
2018-01-15T18:49:36.017Z,59.20
2018-01-15T18:52:05.674Z,59.80
2018-01-15T18:54:34.748Z,59.50
2018-01-15T18:57:02.884Z,59.50
2018-01-15T18:59:31.003Z,59.90
2018-01-15T19:01:59.893Z,59.30
2018-01-15T19:04:28.026Z,59.30
2018-01-15T19:06:56.156Z,59.10
2018-01-15T19:09:24.301Z,59.20
2018-01-15T19:11:53.187Z,59.30
2018-01-15T19:14:22.110Z,59.70
2018-01-15T19:16:50.229Z,59.60
2018-01-15T19:19:18.346Z,59.50
2018-01-15T19:21:46.502Z,59.80
2018-01-15T19:24:15.500Z,60.00
2018-01-15T19:26:43.648Z,60.00
2018-01-15T19:29:11.781Z,59.80
2018-01-15T19:31:39.936Z,60.00
2018-01-15T19:34:08.572Z,60.40
2018-01-15T19:36:49.604Z,60.60
2018-01-15T19:39:18.636Z,60.80
2018-01-15T19:41:46.783Z,61.20
2018-01-15T19:44:29.577Z,61.40
2018-01-15T19:47:03.342Z,61.00
2018-01-15T19:49:38.088Z,61.60
2018-01-15T19:52:12.012Z,60.90
2018-01-15T19:54:45.743Z,60.30
2018-01-15T19:57:19.583Z,60.40
2018-01-15T19:59:54.917Z,60.80
2018-01-15T20:02:30.321Z,61.50
2018-01-15T20:05:04.223Z,61.40
2018-01-15T20:07:37.969Z,61.60
2018-01-15T20:10:11.801Z,62.10
2018-01-15T20:12:40.796Z,63.60
2018-01-15T20:15:09.679Z,64.40
2018-01-15T20:17:38.697Z,65.10
2018-01-15T20:20:07.590Z,65.50
2018-01-15T20:22:35.721Z,65.50
2018-01-15T20:25:04.687Z,65.70
2018-01-15T20:27:32.878Z,65.70
2018-01-15T20:30:01.203Z,66.00
2018-01-15T20:32:29.323Z,65.70
2018-01-15T20:34:57.490Z,65.80
2018-01-15T20:37:25.795Z,66.00
2018-01-15T20:39:54.713Z,66.00
2018-01-15T20:42:22.978Z,65.90
2018-01-15T20:44:51.992Z,65.70
2018-01-15T20:47:20.197Z,65.70
2018-01-15T20:49:48.402Z,66.00
2018-01-15T20:52:17.383Z,66.20
2018-01-15T20:54:45.538Z,66.20
2018-01-15T20:57:13.781Z,66.10
2018-01-15T20:59:41.939Z,66.00
2018-01-15T21:02:10.110Z,66.10
2018-01-15T21:04:38.289Z,66.00
2018-01-15T21:07:06.500Z,65.90
2018-01-15T21:09:34.637Z,65.90
2018-01-15T21:12:02.792Z,65.90
2018-01-15T21:14:30.968Z,66.00
2018-01-15T21:16:59.897Z,65.60
2018-01-15T21:19:28.118Z,65.60
2018-01-15T21:21:57.053Z,65.40
2018-01-15T21:24:25.440Z,65.40
2018-01-15T21:26:53.553Z,65.40
2018-01-15T21:29:22.885Z,65.50
2018-01-15T21:31:51.024Z,65.40
2018-01-15T21:34:19.943Z,65.60
2018-01-15T21:36:48.314Z,65.50
2018-01-15T21:39:16.461Z,65.40
2018-01-15T21:41:45.808Z,65.80
2018-01-15T21:44:13.921Z,65.80
2018-01-15T21:46:42.055Z,65.70
2018-01-15T21:49:10.215Z,65.60
2018-01-15T21:51:38.371Z,65.40
2018-01-15T21:54:07.257Z,65.20
2018-01-15T21:56:35.419Z,65.30
2018-01-15T21:59:04.322Z,65.00
2018-01-15T22:01:32.447Z,65.00
2018-01-15T22:04:00.589Z,64.50
2018-01-15T22:06:29.035Z,64.90
2018-01-15T22:08:57.140Z,65.60
2018-01-15T22:11:25.267Z,65.70
2018-01-15T22:13:54.210Z,65.50
2018-01-15T22:16:22.361Z,65.90
2018-01-15T22:18:50.493Z,65.10
2018-01-15T22:21:18.652Z,66.00
2018-01-15T22:23:46.806Z,65.30
2018-01-15T22:26:15.060Z,64.90
2018-01-15T22:28:44.116Z,65.10
2018-01-15T22:31:13.005Z,64.70
2018-01-15T22:33:42.009Z,65.00
2018-01-15T22:36:10.928Z,65.40
2018-01-15T22:38:39.278Z,65.40
2018-01-15T22:41:08.171Z,65.00
2018-01-15T22:43:36.305Z,65.00
2018-01-15T22:46:04.464Z,64.90
2018-01-15T22:48:32.575Z,64.30
2018-01-15T22:51:01.503Z,63.30
2018-01-15T22:53:29.990Z,63.30
2018-01-15T22:55:58.123Z,64.90
2018-01-15T22:58:27.281Z,65.20
2018-01-15T23:00:55.399Z,65.20
2018-01-15T23:03:23.515Z,65.30
2018-01-15T23:05:51.855Z,63.60
2018-01-15T23:08:20.738Z,64.60
2018-01-15T23:10:49.638Z,63.90
2018-01-15T23:13:17.768Z,63.90
2018-01-15T23:15:45.875Z,64.30
2018-01-15T23:18:14.002Z,63.20
2018-01-15T23:20:42.120Z,63.30
2018-01-15T23:23:10.241Z,62.60
2018-01-15T23:25:38.360Z,62.50
2018-01-15T23:28:07.238Z,62.80
2018-01-15T23:30:36.169Z,62.10
2018-01-15T23:33:04.287Z,62.10
2018-01-15T23:35:33.234Z,61.00
2018-01-15T23:38:01.350Z,60.30
2018-01-15T23:40:29.482Z,60.10
2018-01-15T23:42:57.609Z,61.00
2018-01-15T23:45:26.505Z,61.30
2018-01-15T23:47:55.395Z,59.70
2018-01-15T23:50:24.308Z,61.00
2018-01-15T23:52:52.438Z,60.30
2018-01-15T23:55:21.337Z,61.00
2018-01-15T23:57:50.222Z,60.00
